createdAt,value
2019-01-03T00:00:18.292Z,2.60
2019-01-03T00:01:15.556Z,2.60
2019-01-03T00:02:12.801Z,3.03
2019-01-03T00:03:10.383Z,2.70
2019-01-03T00:04:03.267Z,2.43
2019-01-03T00:05:05.715Z,2.63
2019-01-03T00:05:53.028Z,2.77
2019-01-03T00:06:46.033Z,3.77
2019-01-03T00:07:46.473Z,2.77
2019-01-03T00:08:39.988Z,2.83
2019-01-03T00:09:33.377Z,2.45
2019-01-03T00:10:33.746Z,2.73
2019-01-03T00:11:28.416Z,3.43
2019-01-03T00:12:21.543Z,2.80
2019-01-03T00:13:14.723Z,2.83
2019-01-03T00:14:11.918Z,2.83
2019-01-03T00:15:20.985Z,4.13
2019-01-03T00:16:33.448Z,2.60
2019-01-03T00:17:30.769Z,2.40
2019-01-03T00:18:28.494Z,2.80
2019-01-03T00:19:22.276Z,2.63
2019-01-03T00:20:15.090Z,2.80
2019-01-03T00:21:27.382Z,2.73
2019-01-03T00:22:20.745Z,3.08
2019-01-03T00:23:15.139Z,3.23
2019-01-03T00:24:11.964Z,3.10
2019-01-03T00:25:06.762Z,2.93
2019-01-03T00:26:07.065Z,2.33
2019-01-03T00:27:00.029Z,3.17
2019-01-03T00:28:03.798Z,3.47
2019-01-03T00:28:58.235Z,3.40
2019-01-03T00:29:59.392Z,2.73
2019-01-03T00:30:52.837Z,3.20
2019-01-03T00:32:05.533Z,2.97
2019-01-03T00:33:08.646Z,2.83
2019-01-03T00:34:08.724Z,2.87
2019-01-03T00:35:01.930Z,3.50
2019-01-03T00:36:09.189Z,2.87
2019-01-03T00:37:10.168Z,2.73
2019-01-03T00:38:04.571Z,3.57
2019-01-03T00:39:01.621Z,3.33
2019-01-03T00:39:59.093Z,4.43
2019-01-03T00:40:50.911Z,2.97
2019-01-03T00:41:57.736Z,3.10
2019-01-03T00:42:50.814Z,3.30
2019-01-03T00:43:43.568Z,3.20
2019-01-03T00:44:33.056Z,2.93
2019-01-03T00:45:36.603Z,3.23
2019-01-03T00:46:45.687Z,3.47
2019-01-03T00:47:48.970Z,2.77
2019-01-03T00:48:46.317Z,2.77
2019-01-03T00:49:49.942Z,3.02
2019-01-03T00:50:50.699Z,3.20
2019-01-03T00:51:43.360Z,2.60
2019-01-03T00:52:36.680Z,2.90
2019-01-03T00:53:30.365Z,2.70
2019-01-03T00:54:23.850Z,3.40
2019-01-03T00:55:24.473Z,2.77
2019-01-03T00:56:27.659Z,2.80
2019-01-03T00:57:27.593Z,2.90
2019-01-03T00:58:37.306Z,3.13
2019-01-03T00:59:30.641Z,2.97
2019-01-03T01:00:20.226Z,2.90
2019-01-03T01:01:13.115Z,2.75
2019-01-03T01:02:13.453Z,3.00
2019-01-03T01:03:20.413Z,3.03
2019-01-03T01:04:13.244Z,2.83
2019-01-03T01:05:06.320Z,2.97
2019-01-03T01:06:00.982Z,2.70
2019-01-03T01:07:10.564Z,3.07
2019-01-03T01:08:04.970Z,2.90
2019-01-03T01:09:05.912Z,3.33
2019-01-03T01:09:58.959Z,3.27
2019-01-03T01:10:53.391Z,3.60
2019-01-03T01:12:06.323Z,3.83
2019-01-03T01:13:07.206Z,3.33
2019-01-03T01:14:00.398Z,3.20
2019-01-03T01:14:53.490Z,3.50
2019-01-03T01:15:45.179Z,4.03
2019-01-03T01:16:31.659Z,3.90
2019-01-03T01:17:32.323Z,3.83
2019-01-03T01:18:22.338Z,3.22
2019-01-03T01:19:15.644Z,3.67
2019-01-03T01:20:08.535Z,3.83
2019-01-03T01:21:08.720Z,4.20
2019-01-03T01:21:58.695Z,3.60
2019-01-03T01:22:58.878Z,3.30
2019-01-03T01:23:51.989Z,3.47
2019-01-03T01:24:58.900Z,2.87
2019-01-03T01:26:05.192Z,3.23
2019-01-03T01:27:02.689Z,3.23
2019-01-03T01:27:55.864Z,3.40
2019-01-03T01:28:59.354Z,2.90
2019-01-03T01:29:52.307Z,3.00
2019-01-03T01:30:45.660Z,3.17
2019-01-03T01:31:38.490Z,2.93
2019-01-03T01:32:28.457Z,3.70
2019-01-03T01:33:22.241Z,3.33
2019-01-03T01:34:15.683Z,2.97
2019-01-03T01:35:08.951Z,3.47
2019-01-03T01:35:54.584Z,2.73
2019-01-03T01:36:47.399Z,3.23
2019-01-03T01:37:40.297Z,2.70
2019-01-03T01:38:46.660Z,2.90
2019-01-03T01:39:41.053Z,2.60
2019-01-03T01:40:41.209Z,3.93
2019-01-03T01:41:37.641Z,2.87
2019-01-03T01:42:31.305Z,3.00
2019-01-03T01:43:25.734Z,2.70
2019-01-03T01:44:26.322Z,2.63
2019-01-03T01:45:32.901Z,2.30
2019-01-03T01:46:30.662Z,2.97
2019-01-03T01:47:24.199Z,2.83
2019-01-03T01:48:17.308Z,3.30
2019-01-03T01:49:10.475Z,2.70
2019-01-03T01:50:08.503Z,3.43
2019-01-03T01:51:02.904Z,2.60
2019-01-03T01:52:00.513Z,2.50
2019-01-03T01:52:58.014Z,2.47
2019-01-03T01:53:50.882Z,2.60
2019-01-03T01:54:43.968Z,3.33
2019-01-03T01:55:39.571Z,3.17
2019-01-03T01:56:33.975Z,2.63
2019-01-03T01:57:28.725Z,2.30
2019-01-03T01:58:21.208Z,2.67
2019-01-03T01:59:08.177Z,2.37
2019-01-03T02:00:07.999Z,2.70
2019-01-03T02:01:01.022Z,3.60
2019-01-03T02:01:49.786Z,2.50
2019-01-03T02:02:47.073Z,2.83
2019-01-03T02:03:54.447Z,2.70
2019-01-03T02:04:47.254Z,3.10
2019-01-03T02:05:39.464Z,2.93
2019-01-03T02:06:34.212Z,2.97
2019-01-03T02:07:27.519Z,2.30
2019-01-03T02:08:40.291Z,2.60
2019-01-03T02:09:40.727Z,2.67
2019-01-03T02:10:43.668Z,2.53
2019-01-03T02:11:41.750Z,2.83
2019-01-03T02:12:35.139Z,2.63
2019-01-03T02:13:44.479Z,2.67
2019-01-03T02:14:47.804Z,2.53
2019-01-03T02:15:53.701Z,2.40
2019-01-03T02:16:46.294Z,2.57
2019-01-03T02:17:49.882Z,3.30
2019-01-03T02:18:44.538Z,2.90
2019-01-03T02:19:32.599Z,3.03
2019-01-03T02:20:25.783Z,3.03
2019-01-03T02:21:18.903Z,2.80
2019-01-03T02:22:13.310Z,3.07
2019-01-03T02:23:06.402Z,2.50
2019-01-03T02:24:00.825Z,2.73
2019-01-03T02:24:58.347Z,2.73
2019-01-03T02:25:53.698Z,2.70
2019-01-03T02:27:00.109Z,2.73
2019-01-03T02:28:00.480Z,2.70
2019-01-03T02:29:04.239Z,2.10
2019-01-03T02:30:03.760Z,2.33
2019-01-03T02:31:04.505Z,2.40
2019-01-03T02:32:14.150Z,2.20
2019-01-03T02:33:08.851Z,2.60
2019-01-03T02:34:21.009Z,2.73
2019-01-03T02:35:13.884Z,2.30
2019-01-03T02:36:06.675Z,2.00
2019-01-03T02:37:10.321Z,2.90
2019-01-03T02:38:10.661Z,2.27
2019-01-03T02:39:00.629Z,2.23
2019-01-03T02:40:04.108Z,3.57
2019-01-03T02:41:10.613Z,2.77
2019-01-03T02:42:11.888Z,2.37
2019-01-03T02:43:06.319Z,2.60
2019-01-03T02:44:01.328Z,2.77
2019-01-03T02:45:04.933Z,2.23
2019-01-03T02:45:59.702Z,2.60
2019-01-03T02:47:06.576Z,2.37
2019-01-03T02:48:01.030Z,2.30
2019-01-03T02:48:46.791Z,2.70
2019-01-03T02:49:56.542Z,2.40
2019-01-03T02:50:50.344Z,2.50
2019-01-03T02:51:43.259Z,2.12
2019-01-03T02:52:34.385Z,2.23
2019-01-03T02:53:28.810Z,1.97
2019-01-03T02:54:22.088Z,2.47
2019-01-03T02:55:21.522Z,2.70
2019-01-03T02:56:17.561Z,2.53
2019-01-03T02:57:10.933Z,2.27
2019-01-03T02:58:03.859Z,1.97
2019-01-03T02:58:52.421Z,2.33
2019-01-03T02:59:47.113Z,2.47
2019-01-03T03:00:48.003Z,2.27
2019-01-03T03:01:47.708Z,1.70
2019-01-03T03:02:53.782Z,2.10
2019-01-03T03:03:54.435Z,2.30
2019-01-03T03:04:54.982Z,2.40
2019-01-03T03:06:08.234Z,2.07
2019-01-03T03:07:01.082Z,3.17
2019-01-03T03:08:04.717Z,2.03
2019-01-03T03:09:07.827Z,2.53
2019-01-03T03:10:00.730Z,2.30
2019-01-03T03:10:57.733Z,2.40
2019-01-03T03:11:51.097Z,3.43
2019-01-03T03:12:43.704Z,2.63
2019-01-03T03:13:38.144Z,2.30
2019-01-03T03:14:38.127Z,2.33
2019-01-03T03:15:30.771Z,2.20
2019-01-03T03:16:25.203Z,3.17
2019-01-03T03:17:28.551Z,2.57
2019-01-03T03:18:21.693Z,2.00
2019-01-03T03:19:24.825Z,2.33
2019-01-03T03:20:12.331Z,2.60
2019-01-03T03:21:07.805Z,2.67
2019-01-03T03:22:01.361Z,2.40
2019-01-03T03:23:07.604Z,2.60
2019-01-03T03:23:59.437Z,2.57
2019-01-03T03:24:48.556Z,2.57
2019-01-03T03:25:34.681Z,2.17
2019-01-03T03:26:38.613Z,2.47
2019-01-03T03:27:45.247Z,2.05
2019-01-03T03:28:45.625Z,2.40
2019-01-03T03:29:38.525Z,2.70
2019-01-03T03:30:33.214Z,2.83
2019-01-03T03:31:40.101Z,2.40
2019-01-03T03:32:46.613Z,2.40
2019-01-03T03:33:39.242Z,2.27
2019-01-03T03:34:32.101Z,2.70
2019-01-03T03:35:24.978Z,2.67
2019-01-03T03:36:19.952Z,2.42
2019-01-03T03:37:12.870Z,2.37
2019-01-03T03:38:06.706Z,2.37
2019-01-03T03:39:00.199Z,2.30
2019-01-03T03:39:53.354Z,2.30
2019-01-03T03:40:46.328Z,2.60
2019-01-03T03:41:39.423Z,2.73
2019-01-03T03:42:32.733Z,2.53
2019-01-03T03:43:36.845Z,2.73
2019-01-03T03:44:29.090Z,3.23
2019-01-03T03:45:17.295Z,2.70
2019-01-03T03:46:17.727Z,2.20
2019-01-03T03:47:14.897Z,2.83
2019-01-03T03:48:18.451Z,3.03
2019-01-03T03:49:11.682Z,3.00
2019-01-03T03:50:02.409Z,2.33
2019-01-03T03:50:45.664Z,3.10
2019-01-03T03:51:49.328Z,2.60
2019-01-03T03:52:52.958Z,2.83
2019-01-03T03:53:50.229Z,2.40
2019-01-03T03:54:43.280Z,3.00
2019-01-03T03:55:46.877Z,2.93
2019-01-03T03:56:46.044Z,2.50
2019-01-03T03:57:45.719Z,2.83
2019-01-03T03:58:53.328Z,2.50
2019-01-03T03:59:51.185Z,2.83
2019-01-03T04:00:45.886Z,2.67
2019-01-03T04:01:39.259Z,2.43
2019-01-03T04:02:32.155Z,2.90
2019-01-03T04:03:38.560Z,2.50
2019-01-03T04:04:31.188Z,2.43
2019-01-03T04:05:29.011Z,2.63
2019-01-03T04:06:41.655Z,2.47
2019-01-03T04:07:52.364Z,2.57
2019-01-03T04:08:45.081Z,2.80
2019-01-03T04:09:32.208Z,2.57
2019-01-03T04:10:16.590Z,3.17
2019-01-03T04:11:09.667Z,2.40
2019-01-03T04:11:56.513Z,3.70
2019-01-03T04:13:05.979Z,3.27
2019-01-03T04:14:00.376Z,2.73
2019-01-03T04:14:50.242Z,2.93
2019-01-03T04:15:56.498Z,3.10
2019-01-03T04:16:49.620Z,2.60
2019-01-03T04:17:45.569Z,2.70
2019-01-03T04:18:49.781Z,2.50
2019-01-03T04:19:56.094Z,2.47
2019-01-03T04:21:05.553Z,2.67
2019-01-03T04:21:56.806Z,2.63
2019-01-03T04:22:50.199Z,2.27
2019-01-03T04:23:39.776Z,2.70
2019-01-03T04:24:36.820Z,2.50
2019-01-03T04:25:40.527Z,2.52
2019-01-03T04:26:33.668Z,3.00
2019-01-03T04:27:26.724Z,2.93
2019-01-03T04:28:19.902Z,3.07
2019-01-03T04:29:13.284Z,2.70
2019-01-03T04:30:06.065Z,3.07
2019-01-03T04:31:14.853Z,3.17
2019-01-03T04:32:08.217Z,2.87
2019-01-03T04:33:01.153Z,2.83
2019-01-03T04:33:49.881Z,2.60
2019-01-03T04:34:47.400Z,2.83
2019-01-03T04:35:50.916Z,3.07
2019-01-03T04:36:52.080Z,3.30
2019-01-03T04:37:49.028Z,3.30
2019-01-03T04:38:41.830Z,2.60
2019-01-03T04:39:39.324Z,2.73
2019-01-03T04:40:42.297Z,2.80
2019-01-03T04:41:35.363Z,2.70
2019-01-03T04:42:20.183Z,2.90
2019-01-03T04:43:26.714Z,3.03
2019-01-03T04:44:30.318Z,2.97
2019-01-03T04:45:40.258Z,3.23
2019-01-03T04:46:37.516Z,2.70
2019-01-03T04:47:37.996Z,2.47
2019-01-03T04:48:32.687Z,2.80
2019-01-03T04:49:25.767Z,2.67
2019-01-03T04:50:18.520Z,3.00
2019-01-03T04:51:17.329Z,2.90
2019-01-03T04:52:20.630Z,2.57
2019-01-03T04:53:21.162Z,3.23
2019-01-03T04:54:13.999Z,2.40
2019-01-03T04:55:07.104Z,3.90
2019-01-03T04:55:59.980Z,3.10
2019-01-03T04:56:54.406Z,3.20
2019-01-03T04:57:54.972Z,3.23
2019-01-03T04:59:04.635Z,2.40
2019-01-03T04:59:57.849Z,2.93
2019-01-03T05:00:50.615Z,3.37
2019-01-03T05:02:07.908Z,2.70
2019-01-03T05:03:00.955Z,2.57
2019-01-03T05:03:58.313Z,2.97
2019-01-03T05:04:58.623Z,2.90
2019-01-03T05:05:46.854Z,2.73
2019-01-03T05:06:53.483Z,3.00
2019-01-03T05:07:53.844Z,2.73
2019-01-03T05:08:40.872Z,2.93
2019-01-03T05:09:43.401Z,3.20
2019-01-03T05:10:47.274Z,2.63
2019-01-03T05:11:40.380Z,2.30
2019-01-03T05:12:28.364Z,3.07
2019-01-03T05:13:25.968Z,2.60
2019-01-03T05:14:29.822Z,3.03
2019-01-03T05:15:30.596Z,2.80
2019-01-03T05:16:41.891Z,3.20
2019-01-03T05:17:34.767Z,3.07
2019-01-03T05:18:27.560Z,2.90
2019-01-03T05:19:31.443Z,2.73
2019-01-03T05:20:28.654Z,3.00
2019-01-03T05:21:39.550Z,2.73
2019-01-03T05:22:26.303Z,2.67
2019-01-03T05:23:29.971Z,2.27
2019-01-03T05:24:23.017Z,2.43
2019-01-03T05:25:26.504Z,2.50
2019-01-03T05:26:21.174Z,2.77
2019-01-03T05:27:13.926Z,2.80
2019-01-03T05:28:02.753Z,3.03
2019-01-03T05:29:02.698Z,3.07
2019-01-03T05:29:55.890Z,2.33
2019-01-03T05:30:55.978Z,3.23
2019-01-03T05:31:56.314Z,2.87
2019-01-03T05:32:49.382Z,2.83
2019-01-03T05:34:01.783Z,2.73
2019-01-03T05:34:54.642Z,2.77
2019-01-03T05:35:51.787Z,3.20
2019-01-03T05:36:35.925Z,3.20
2019-01-03T05:37:33.105Z,2.83
2019-01-03T05:38:26.226Z,2.83
2019-01-03T05:39:14.660Z,3.13
2019-01-03T05:40:08.080Z,2.92
2019-01-03T05:40:52.569Z,3.63
2019-01-03T05:41:45.487Z,2.57
2019-01-03T05:42:36.264Z,2.57
2019-01-03T05:43:48.865Z,2.93
2019-01-03T05:45:01.220Z,2.80
2019-01-03T05:46:07.842Z,3.13
2019-01-03T05:47:13.930Z,3.00
2019-01-03T05:48:20.845Z,3.10
2019-01-03T05:49:13.582Z,2.50
2019-01-03T05:50:10.768Z,2.70
2019-01-03T05:51:03.569Z,2.80
2019-01-03T05:51:52.805Z,3.20
2019-01-03T05:52:47.483Z,3.73
2019-01-03T05:54:00.139Z,2.87
2019-01-03T05:54:53.363Z,3.10
2019-01-03T05:55:46.351Z,2.87
2019-01-03T05:56:55.401Z,3.17
2019-01-03T05:57:48.649Z,3.10
2019-01-03T05:58:43.262Z,3.33
2019-01-03T05:59:36.423Z,3.90
2019-01-03T06:00:33.456Z,2.97
2019-01-03T06:01:27.852Z,3.17
2019-01-03T06:02:20.958Z,2.90
2019-01-03T06:03:16.529Z,2.70
2019-01-03T06:04:07.481Z,2.83
2019-01-03T06:04:57.641Z,2.90
2019-01-03T06:05:50.143Z,3.27
2019-01-03T06:07:02.469Z,2.80
2019-01-03T06:08:03.190Z,3.57
2019-01-03T06:09:01.684Z,3.33
2019-01-03T06:09:54.787Z,3.43
2019-01-03T06:10:45.021Z,2.53
2019-01-03T06:11:46.052Z,2.87
2019-01-03T06:12:40.736Z,3.27
2019-01-03T06:13:44.066Z,3.37
2019-01-03T06:14:44.634Z,3.47
2019-01-03T06:15:37.438Z,3.60
2019-01-03T06:16:50.371Z,3.10
2019-01-03T06:17:36.902Z,3.30
2019-01-03T06:18:39.095Z,2.97
2019-01-03T06:19:39.568Z,3.13
2019-01-03T06:20:36.708Z,3.37
2019-01-03T06:21:29.588Z,3.43
2019-01-03T06:22:23.992Z,3.77
2019-01-03T06:23:24.298Z,3.40
2019-01-03T06:24:24.909Z,3.17
2019-01-03T06:25:17.467Z,3.40
2019-01-03T06:26:10.453Z,3.43
2019-01-03T06:27:03.566Z,2.80
2019-01-03T06:28:08.091Z,3.27
2019-01-03T06:29:14.233Z,3.47
2019-01-03T06:30:24.067Z,3.00
2019-01-03T06:31:18.457Z,3.03
2019-01-03T06:32:15.994Z,3.93
2019-01-03T06:33:10.465Z,4.03
2019-01-03T06:34:07.968Z,3.23
2019-01-03T06:35:02.824Z,3.43
2019-01-03T06:35:54.963Z,3.00
2019-01-03T06:36:56.444Z,3.17
2019-01-03T06:38:00.431Z,3.25
2019-01-03T06:38:53.366Z,3.33
2019-01-03T06:39:46.239Z,3.93
2019-01-03T06:40:39.274Z,3.70
2019-01-03T06:41:32.469Z,3.37
2019-01-03T06:42:36.568Z,3.23
2019-01-03T06:43:49.214Z,3.07
2019-01-03T06:44:51.954Z,3.07
2019-01-03T06:45:44.711Z,3.63
2019-01-03T06:46:48.192Z,3.30
2019-01-03T06:47:41.098Z,3.40
2019-01-03T06:48:34.209Z,3.40
2019-01-03T06:49:27.095Z,3.63
2019-01-03T06:50:19.649Z,3.40
2019-01-03T06:51:26.176Z,3.57
2019-01-03T06:52:23.901Z,3.00
2019-01-03T06:53:20.967Z,3.10
2019-01-03T06:54:24.310Z,3.30
2019-01-03T06:55:14.515Z,3.37
2019-01-03T06:56:05.376Z,3.93
2019-01-03T06:56:58.477Z,2.87
2019-01-03T06:58:01.338Z,3.20
2019-01-03T06:58:55.733Z,3.20
2019-01-03T06:59:56.205Z,3.20
2019-01-03T07:00:59.165Z,3.40
2019-01-03T07:02:08.765Z,3.30
2019-01-03T07:03:12.067Z,3.50
2019-01-03T07:04:09.499Z,3.40
2019-01-03T07:05:18.612Z,3.30
2019-01-03T07:06:15.895Z,3.53
2019-01-03T07:07:15.878Z,3.30
2019-01-03T07:08:07.116Z,3.33
2019-01-03T07:09:00.097Z,2.87
2019-01-03T07:09:53.764Z,3.40
2019-01-03T07:10:46.087Z,3.40
2019-01-03T07:11:38.026Z,3.83
2019-01-03T07:12:32.539Z,3.23
2019-01-03T07:13:25.525Z,3.93
2019-01-03T07:14:20.140Z,3.30
2019-01-03T07:15:26.706Z,3.17
2019-01-03T07:16:32.945Z,3.03
2019-01-03T07:17:20.472Z,3.83
2019-01-03T07:18:18.234Z,3.43
2019-01-03T07:19:12.069Z,3.20
2019-01-03T07:20:06.463Z,3.87
2019-01-03T07:20:59.224Z,3.37
2019-01-03T07:21:52.374Z,3.17
2019-01-03T07:22:45.710Z,3.45
2019-01-03T07:23:43.177Z,4.73
2019-01-03T07:24:37.900Z,3.65
2019-01-03T07:25:48.258Z,3.62
2019-01-03T07:26:48.469Z,3.80
2019-01-03T07:27:41.099Z,3.70
2019-01-03T07:28:43.874Z,4.57
2019-01-03T07:29:38.532Z,3.80
2019-01-03T07:30:31.457Z,3.83
2019-01-03T07:31:25.879Z,3.63
2019-01-03T07:32:26.205Z,4.07
2019-01-03T07:33:35.851Z,3.50
2019-01-03T07:34:44.960Z,4.10
2019-01-03T07:35:45.620Z,4.40
2019-01-03T07:36:42.551Z,3.40
2019-01-03T07:37:35.726Z,3.93
2019-01-03T07:38:28.724Z,4.03
2019-01-03T07:39:41.790Z,3.80
2019-01-03T07:40:37.468Z,4.22
2019-01-03T07:41:38.351Z,4.00
2019-01-03T07:42:31.542Z,3.27
2019-01-03T07:43:24.931Z,3.22
2019-01-03T07:44:28.586Z,4.07
2019-01-03T07:45:21.643Z,3.90
2019-01-03T07:46:16.593Z,3.92
2019-01-03T07:47:17.954Z,3.85
2019-01-03T07:48:11.108Z,4.10
2019-01-03T07:49:02.781Z,3.80
2019-01-03T07:50:15.326Z,3.53
2019-01-03T07:51:07.915Z,3.67
2019-01-03T07:52:02.440Z,4.00
2019-01-03T07:52:59.661Z,3.67
2019-01-03T07:53:56.803Z,4.13
2019-01-03T07:54:44.738Z,3.80
2019-01-03T07:55:31.012Z,3.80
2019-01-03T07:56:28.394Z,4.27
2019-01-03T07:57:21.062Z,4.30
2019-01-03T07:58:24.700Z,4.50
2019-01-03T07:59:17.797Z,4.67
2019-01-03T08:00:15.954Z,3.73
2019-01-03T08:01:25.294Z,4.27
2019-01-03T08:02:32.256Z,4.43
2019-01-03T08:03:29.730Z,5.07
2019-01-03T08:04:37.314Z,4.37
2019-01-03T08:05:35.006Z,4.80
2019-01-03T08:06:38.801Z,3.80
2019-01-03T08:07:45.134Z,5.07
2019-01-03T08:08:38.215Z,4.30
2019-01-03T08:09:31.439Z,3.87
2019-01-03T08:10:37.983Z,4.27
2019-01-03T08:11:47.165Z,3.97
2019-01-03T08:12:51.073Z,4.37
2019-01-03T08:14:00.547Z,4.67
2019-01-03T08:14:55.274Z,4.57
2019-01-03T08:15:49.695Z,5.00
2019-01-03T08:16:56.345Z,3.93
2019-01-03T08:17:49.456Z,3.57
2019-01-03T08:18:45.481Z,4.20
2019-01-03T08:19:47.199Z,4.10
2019-01-03T08:20:47.762Z,4.50
2019-01-03T08:21:40.712Z,4.43
2019-01-03T08:22:33.821Z,4.00
2019-01-03T08:23:26.677Z,4.70
2019-01-03T08:24:26.146Z,3.87
2019-01-03T08:25:20.850Z,4.23
2019-01-03T08:26:30.406Z,5.23
2019-01-03T08:27:24.884Z,4.50
2019-01-03T08:28:17.882Z,5.07
2019-01-03T08:29:22.105Z,3.80
2019-01-03T08:30:10.688Z,3.77
2019-01-03T08:31:08.259Z,4.47
2019-01-03T08:32:01.107Z,4.57
2019-01-03T08:32:55.568Z,3.83
2019-01-03T08:33:44.680Z,4.57
2019-01-03T08:34:46.233Z,4.70
2019-01-03T08:35:39.276Z,3.93
2019-01-03T08:36:48.686Z,4.60
2019-01-03T08:38:01.135Z,4.30
2019-01-03T08:39:08.442Z,4.03
2019-01-03T08:40:01.349Z,4.80
2019-01-03T08:40:55.780Z,4.83
2019-01-03T08:42:02.198Z,6.33
2019-01-03T08:43:08.745Z,5.27
2019-01-03T08:44:06.088Z,4.30
2019-01-03T08:45:06.541Z,4.87
2019-01-03T08:46:15.889Z,4.30
2019-01-03T08:47:05.222Z,4.67
2019-01-03T08:48:07.791Z,4.67
2019-01-03T08:49:00.733Z,4.67
2019-01-03T08:50:10.049Z,5.53
2019-01-03T08:51:07.234Z,4.70
2019-01-03T08:52:19.651Z,5.27
2019-01-03T08:53:12.283Z,5.70
2019-01-03T08:54:05.772Z,5.20
2019-01-03T08:55:00.222Z,4.97
2019-01-03T08:55:53.131Z,4.60
2019-01-03T08:56:47.328Z,5.37
2019-01-03T08:57:57.017Z,5.40
2019-01-03T08:59:03.047Z,5.53
2019-01-03T09:00:00.089Z,5.90
2019-01-03T09:00:52.839Z,6.27
2019-01-03T09:01:47.294Z,5.93
2019-01-03T09:02:41.944Z,5.60
2019-01-03T09:03:35.189Z,5.00
2019-01-03T09:04:39.141Z,5.77
2019-01-03T09:05:39.757Z,5.63
2019-01-03T09:06:20.286Z,5.83
2019-01-03T09:07:29.914Z,5.60
2019-01-03T09:08:23.145Z,5.43
2019-01-03T09:09:17.582Z,5.60
2019-01-03T09:10:18.204Z,5.57
2019-01-03T09:11:11.008Z,5.80
2019-01-03T09:12:08.180Z,5.87
2019-01-03T09:13:01.518Z,6.30
2019-01-03T09:13:54.633Z,6.37
2019-01-03T09:14:47.724Z,6.23
2019-01-03T09:15:42.131Z,4.83
2019-01-03T09:16:36.124Z,6.13
2019-01-03T09:17:45.755Z,4.93
2019-01-03T09:18:37.175Z,5.33
2019-01-03T09:19:30.454Z,5.27
2019-01-03T09:20:34.172Z,5.40
2019-01-03T09:21:34.239Z,5.17
2019-01-03T09:22:37.473Z,5.10
2019-01-03T09:23:32.406Z,5.17
2019-01-03T09:24:38.942Z,5.23
2019-01-03T09:25:45.332Z,5.70
2019-01-03T09:26:51.696Z,5.27
2019-01-03T09:27:44.798Z,5.47
2019-01-03T09:28:45.081Z,5.87
2019-01-03T09:29:54.758Z,5.73
2019-01-03T09:30:57.265Z,5.70
2019-01-03T09:31:57.815Z,6.20
2019-01-03T09:32:56.354Z,5.97
2019-01-03T09:34:03.015Z,5.33
2019-01-03T09:34:55.745Z,5.87
2019-01-03T09:35:45.155Z,6.27
2019-01-03T09:36:37.991Z,5.60
2019-01-03T09:37:32.411Z,6.20
2019-01-03T09:38:32.640Z,6.00
2019-01-03T09:39:42.877Z,5.97
2019-01-03T09:40:37.277Z,5.97
2019-01-03T09:41:34.665Z,6.23
2019-01-03T09:42:40.998Z,6.40
2019-01-03T09:43:34.011Z,5.80
2019-01-03T09:44:32.458Z,6.40
2019-01-03T09:45:08.149Z,5.03
2019-01-03T09:45:44.557Z,6.30
2019-01-03T09:46:20.294Z,5.60
2019-01-03T09:46:55.764Z,6.37
2019-01-03T09:47:31.589Z,5.73
2019-01-03T09:48:07.023Z,6.33
2019-01-03T09:48:42.467Z,6.73
2019-01-03T09:49:17.917Z,6.60
2019-01-03T09:49:53.697Z,6.97
2019-01-03T09:50:29.192Z,6.23
2019-01-03T09:51:04.877Z,6.57
2019-01-03T09:51:40.556Z,7.00
2019-01-03T09:52:15.981Z,6.27
2019-01-03T09:52:51.436Z,6.27
2019-01-03T09:53:26.976Z,6.20
2019-01-03T09:54:02.488Z,6.13
2019-01-03T09:54:38.065Z,7.23
2019-01-03T09:55:13.624Z,6.77
2019-01-03T09:55:49.072Z,6.83
2019-01-03T09:56:24.518Z,7.07
2019-01-03T09:57:00.101Z,7.80
2019-01-03T09:57:35.583Z,7.37
2019-01-03T09:58:11.038Z,6.93
2019-01-03T09:58:46.739Z,6.93
2019-01-03T09:59:22.193Z,7.40
2019-01-03T09:59:57.649Z,6.90
2019-01-03T10:00:33.081Z,7.60
2019-01-03T10:01:08.828Z,7.80
2019-01-03T10:01:44.238Z,6.97
2019-01-03T10:02:19.725Z,7.03
2019-01-03T10:02:55.522Z,7.80
2019-01-03T10:03:31.569Z,6.40
2019-01-03T10:04:07.468Z,7.37
2019-01-03T10:04:42.963Z,6.83
2019-01-03T10:05:18.386Z,7.77
2019-01-03T10:05:54.257Z,7.50
2019-01-03T10:06:29.992Z,6.87
2019-01-03T10:07:05.474Z,7.20
2019-01-03T10:07:40.904Z,7.47
2019-01-03T10:08:19.622Z,6.93
2019-01-03T10:08:53.822Z,7.80
2019-01-03T10:09:29.326Z,7.03
2019-01-03T10:10:05.795Z,7.60
2019-01-03T10:10:41.269Z,7.07
2019-01-03T10:11:16.688Z,7.17
2019-01-03T10:11:52.588Z,7.40
2019-01-03T10:12:28.116Z,7.30
2019-01-03T10:13:03.562Z,7.93
2019-01-03T10:13:39.259Z,7.30
2019-01-03T10:14:14.687Z,7.97
2019-01-03T10:14:50.130Z,8.50
2019-01-03T10:15:25.832Z,7.37
2019-01-03T10:16:01.644Z,7.53
2019-01-03T10:16:37.068Z,6.87
2019-01-03T10:17:12.498Z,7.00
2019-01-03T10:17:47.932Z,7.50
2019-01-03T10:18:23.363Z,7.17
2019-01-03T10:18:59.158Z,7.80
2019-01-03T10:19:34.641Z,7.87
2019-01-03T10:20:10.343Z,7.63
2019-01-03T10:20:45.796Z,7.73
2019-01-03T10:21:21.567Z,7.83
2019-01-03T10:21:57.687Z,8.13
2019-01-03T10:22:33.152Z,8.57
2019-01-03T10:23:08.592Z,8.07
2019-01-03T10:23:44.031Z,8.40
2019-01-03T10:24:19.453Z,7.63
2019-01-03T10:24:54.906Z,8.37
2019-01-03T10:25:30.381Z,10.20
2019-01-03T10:26:05.821Z,7.83
2019-01-03T10:26:41.263Z,8.60
2019-01-03T10:27:16.729Z,8.57
2019-01-03T10:27:52.476Z,8.03
2019-01-03T10:28:28.019Z,7.70
2019-01-03T10:29:03.594Z,8.67
2019-01-03T10:29:39.047Z,8.37
2019-01-03T10:30:14.500Z,8.40
2019-01-03T10:30:49.954Z,8.30
2019-01-03T10:31:25.483Z,8.73
2019-01-03T10:32:00.966Z,8.77
2019-01-03T10:32:36.418Z,9.73
2019-01-03T10:33:12.098Z,8.47
2019-01-03T10:33:47.551Z,8.63
2019-01-03T10:34:23.018Z,8.20
2019-01-03T10:34:58.540Z,8.50
2019-01-03T10:35:34.024Z,7.97
2019-01-03T10:36:09.457Z,8.57
2019-01-03T10:36:45.131Z,8.50
2019-01-03T10:37:20.555Z,8.10
2019-01-03T10:37:56.019Z,8.43
2019-01-03T10:38:31.547Z,9.17
2019-01-03T10:39:08.839Z,8.73
2019-01-03T10:39:44.265Z,7.67
2019-01-03T10:40:19.783Z,8.90
2019-01-03T10:40:55.261Z,9.00
2019-01-03T10:41:31.290Z,11.13
2019-01-03T10:42:06.982Z,8.23
2019-01-03T10:42:42.434Z,8.13
2019-01-03T10:43:18.126Z,8.63
2019-01-03T10:43:53.635Z,9.27
2019-01-03T10:44:29.244Z,7.77
2019-01-03T10:45:04.781Z,8.93
2019-01-03T10:45:40.409Z,7.57
2019-01-03T10:46:15.852Z,8.10
2019-01-03T10:46:51.300Z,9.20
2019-01-03T10:47:27.004Z,8.83
2019-01-03T10:48:02.493Z,8.60
2019-01-03T10:48:38.241Z,9.57
2019-01-03T10:49:13.921Z,8.50
2019-01-03T10:49:49.395Z,7.63
2019-01-03T10:50:25.193Z,8.17
2019-01-03T10:51:00.826Z,8.67
2019-01-03T10:51:36.651Z,8.87
2019-01-03T10:52:12.113Z,8.43
2019-01-03T10:52:47.573Z,8.80
2019-01-03T10:53:23.017Z,8.03
2019-01-03T10:53:58.708Z,9.10
2019-01-03T10:54:34.184Z,8.83
2019-01-03T10:55:09.786Z,9.47
2019-01-03T10:55:45.246Z,8.83
2019-01-03T10:56:20.682Z,8.73
2019-01-03T10:56:56.102Z,9.07
2019-01-03T10:57:31.529Z,8.30
2019-01-03T10:58:07.011Z,8.30
2019-01-03T10:58:42.449Z,8.17
2019-01-03T10:59:17.857Z,8.63
2019-01-03T10:59:53.694Z,8.17
2019-01-03T11:00:29.418Z,8.63
2019-01-03T11:01:04.856Z,8.13
2019-01-03T11:01:40.374Z,9.83
2019-01-03T11:02:16.168Z,10.07
2019-01-03T11:02:51.941Z,8.68
2019-01-03T11:03:27.402Z,9.13
2019-01-03T11:04:03.550Z,8.77
2019-01-03T11:04:39.253Z,8.40
2019-01-03T11:05:14.719Z,9.03
2019-01-03T11:05:50.141Z,8.97
2019-01-03T11:06:25.580Z,8.23
2019-01-03T11:07:00.986Z,9.00
2019-01-03T11:07:36.809Z,8.60
2019-01-03T11:08:12.336Z,8.70
2019-01-03T11:08:48.072Z,8.43
2019-01-03T11:09:23.772Z,8.37
2019-01-03T11:09:59.237Z,9.47
2019-01-03T11:10:34.873Z,8.47
2019-01-03T11:11:10.671Z,8.50
2019-01-03T11:11:46.121Z,9.17
2019-01-03T11:12:21.573Z,7.97
2019-01-03T11:12:57.268Z,9.17
2019-01-03T11:13:32.993Z,8.67
2019-01-03T11:14:08.714Z,8.50
2019-01-03T11:14:44.163Z,8.67
2019-01-03T11:15:19.878Z,8.43
2019-01-03T11:15:55.338Z,9.10
2019-01-03T11:16:30.789Z,9.33
2019-01-03T11:17:06.218Z,8.57
2019-01-03T11:17:41.656Z,9.23
2019-01-03T11:18:17.371Z,8.70
2019-01-03T11:18:52.882Z,9.07
2019-01-03T11:19:28.321Z,9.33
2019-01-03T11:20:03.811Z,8.60
2019-01-03T11:20:39.285Z,9.50
2019-01-03T11:21:14.788Z,10.20
2019-01-03T11:21:50.228Z,9.70
2019-01-03T11:22:25.656Z,10.87
2019-01-03T11:23:01.146Z,10.20
2019-01-03T11:23:36.620Z,10.47
2019-01-03T11:24:12.136Z,10.50
2019-01-03T11:24:47.562Z,8.90
2019-01-03T11:25:23.027Z,10.40
2019-01-03T11:25:58.455Z,10.93
2019-01-03T11:26:33.897Z,9.93
2019-01-03T11:27:09.615Z,10.23
2019-01-03T11:27:45.090Z,10.40
2019-01-03T11:28:21.155Z,10.30
2019-01-03T11:28:56.587Z,10.73
2019-01-03T11:29:32.074Z,10.53
2019-01-03T11:30:09.161Z,9.77
2019-01-03T11:30:44.698Z,10.03
2019-01-03T11:31:20.221Z,10.07
2019-01-03T11:31:55.994Z,9.67
2019-01-03T11:32:31.720Z,10.13
2019-01-03T11:33:07.289Z,9.37
2019-01-03T11:33:43.129Z,10.10
2019-01-03T11:34:18.861Z,9.93
2019-01-03T11:34:54.636Z,10.87
2019-01-03T11:35:30.080Z,10.43
2019-01-03T11:36:05.824Z,10.37
2019-01-03T11:36:41.300Z,10.33